Time;durP1;ratioP1;P1;durP2;ratioP2;P2;SDS_P1;SDS_P2;PMS_P1;PMS_P2;Temp;Humidity;BMP_temperature;BMP_pressure;BME280_temperature;BME280_humidity;BME280_pressure;Samples;Min_cycle;Max_cycle;Signal;HPM_P1;HPM_P2
2022/05/14 00:00:24;;;;;;;4.77;2.60;;;;;;;10.47;57.97;100869.12;1809276;78;21100;-83
2022/05/14 00:02:55;;;;;;;4.57;3.10;;;;;;;10.41;58.16;100863.62;1746882;80;21012;-74
2022/05/14 00:05:24;;;;;;;6.37;3.00;;;;;;;10.32;58.33;100870.89;1815686;78;21032;-83
2022/05/14 00:07:52;;;;;;;4.97;2.80;;;;;;;10.24;58.59;100871.08;1814398;79;20988;-80
2022/05/14 00:10:24;;;;;;;6.27;2.83;;;;;;;10.13;58.76;100870.52;1814347;79;21006;-73
2022/05/14 00:13:03;;;;;;;9.00;3.27;;;;;;;10.05;58.88;100870.27;1776646;80;21143;-73
2022/05/14 00:15:40;;;;;;;6.08;2.47;;;;;;;9.99;59.15;100875.67;1781134;80;21573;-74
2022/05/14 00:18:10;;;;;;;6.00;2.63;;;;;;;9.96;59.24;100873.59;1773749;80;21001;-75
2022/05/14 00:20:38;;;;;;;5.10;2.43;;;;;;;9.89;59.37;100873.34;1750165;81;21085;-75
2022/05/14 00:23:06;;;;;;;6.73;2.73;;;;;;;9.81;59.52;100873.11;1750099;81;21087;-80
2022/05/14 00:25:34;;;;;;;4.07;2.33;;;;;;;9.78;59.75;100871.00;1780572;79;21206;-76
2022/05/14 00:28:03;;;;;;;7.53;2.87;;;;;;;9.72;60.06;100872.02;1803176;77;20996;-74
2022/05/14 00:30:32;;;;;;;5.30;2.63;;;;;;;9.67;60.33;100873.92;1744490;80;21592;-74
2022/05/14 00:32:59;;;;;;;3.30;2.73;;;;;;;9.60;60.58;100868.42;1737297;80;21074;-81
2022/05/14 00:35:27;;;;;;;6.40;3.03;;;;;;;9.57;60.91;100867.20;1739291;80;21029;-74
2022/05/14 00:37:54;;;;;;;6.23;2.77;;;;;;;9.55;61.10;100871.59;1739933;80;21150;-84
2022/05/14 00:40:30;;;;;;;6.30;2.73;;;;;;;9.52;61.27;100865.99;1725003;81;21498;-72
2022/05/14 00:42:57;;;;;;;5.90;3.03;;;;;;;9.48;61.60;100863.06;1714833;82;21017;-72
2022/05/14 00:45:25;;;;;;;5.13;2.80;;;;;;;9.48;61.92;100861.75;1742737;81;21107;-71
2022/05/14 00:47:56;;;;;;;7.87;2.70;;;;;;;9.46;62.02;100863.99;1804703;77;21016;-72
2022/05/14 00:50:35;;;;;;;9.03;2.80;;;;;;;9.47;62.24;100863.94;1812455;77;21107;-72
2022/05/14 00:53:10;;;;;;;3.33;2.60;;;;;;;9.43;62.46;100861.45;1744606;80;21024;-73
2022/05/14 00:55:38;;;;;;;6.80;3.00;;;;;;;9.37;62.55;100862.02;1745854;79;21017;-72
2022/05/14 00:58:08;;;;;;;3.97;2.70;;;;;;;9.31;62.80;100859.55;1745511;79;20929;-72
2022/05/14 01:00:36;;;;;;;5.85;2.87;;;;;;;9.26;62.94;100860.11;1766357;79;21518;-72
2022/05/14 01:03:05;;;;;;;4.77;2.90;;;;;;;9.22;63.11;100858.45;1719575;81;21109;-80
2022/05/14 01:05:33;;;;;;;4.20;2.40;;;;;;;9.18;63.21;100861.19;1719881;82;21549;-72
2022/05/14 01:08:03;;;;;;;6.10;2.67;;;;;;;9.11;63.34;100861.77;1728666;81;21104;-72
2022/05/14 01:10:35;;;;;;;5.33;2.92;;;;;;;9.10;63.67;100862.22;1692166;83;21028;-81
2022/05/14 01:13:03;;;;;;;5.60;3.00;;;;;;;9.09;63.96;100859.20;1707817;82;21036;-78
2022/05/14 01:15:49;;;;;;;4.43;2.87;;;;;;;9.08;64.11;100856.16;1684142;82;22671;-71
2022/05/14 01:18:19;;;;;;;5.00;2.80;;;;;;;9.11;64.36;100856.53;1685338;82;20994;-72
2022/05/14 01:21:04;;;;;;;5.20;2.90;;;;;;;9.07;64.40;100849.67;1758240;80;21008;-82
2022/05/14 01:26:27;;;;;;;7.20;3.30;;;;;;;9.04;64.58;100847.98;1749749;80;21008;-71
2022/05/14 01:26:28;;;;;;;9.77;4.63;;;;;;;8.99;64.63;100849.84;1710664;81;21454;-72
2022/05/14 01:29:08;;;;;;;10.80;5.13;;;;;;;8.94;64.63;100851.25;1747190;80;21498;-72
2022/05/14 01:31:37;;;;;;;8.13;4.90;;;;;;;8.90;64.76;100852.69;1761807;80;21574;-77
2022/05/14 01:34:09;;;;;;;10.25;5.65;;;;;;;8.85;64.75;100853.23;1762034;80;21040;-72
2022/05/14 01:36:39;;;;;;;11.90;5.37;;;;;;;8.80;64.94;100850.71;1760263;81;21048;-72
2022/05/14 01:39:07;;;;;;;9.13;3.85;;;;;;;8.78;64.87;100851.64;1758082;80;25900;-73
2022/05/14 01:41:35;;;;;;;10.03;5.00;;;;;;;8.76;65.00;100854.72;1746683;80;21294;-72
2022/05/14 01:44:04;;;;;;;8.53;4.50;;;;;;;8.80;65.14;100853.33;1748024;80;21057;-72
2022/05/14 01:46:31;;;;;;;8.10;4.37;;;;;;;8.83;65.32;100854.56;1744625;81;21043;-72
2022/05/14 01:48:59;;;;;;;5.47;3.23;;;;;;;8.86;65.23;100855.80;1736092;81;37688;-72
2022/05/14 01:51:28;;;;;;;4.40;3.27;;;;;;;8.99;65.34;100854.22;1683213;83;21536;-72
2022/05/14 01:53:56;;;;;;;5.77;2.90;;;;;;;9.09;65.33;100855.28;1702600;82;22442;-73
2022/05/14 01:56:23;;;;;;;8.97;3.10;;;;;;;9.19;64.98;100849.83;1689806;84;21039;-72
2022/05/14 01:58:51;;;;;;;6.60;3.07;;;;;;;9.25;64.71;100851.83;1709082;82;21072;-72
2022/05/14 02:01:25;;;;;;;6.77;3.10;;;;;;;9.31;64.55;100850.82;1702287;82;21069;-81
2022/05/14 02:03:58;;;;;;;6.20;3.30;;;;;;;9.36;64.32;100852.42;1727259;80;21108;-73
2022/05/14 02:06:28;;;;;;;6.50;3.10;;;;;;;9.38;64.18;100845.41;1727804;80;22433;-73
2022/05/14 02:08:57;;;;;;;6.67;2.73;;;;;;;9.42;64.13;100842.70;1731787;80;21065;-72
2022/05/14 02:11:25;;;;;;;6.70;3.20;;;;;;;9.46;64.08;100841.30;1744499;80;21439;-72
2022/05/14 02:13:55;;;;;;;6.05;3.02;;;;;;;9.50;64.01;100840.30;1744566;82;20993;-79
2022/05/14 02:16:22;;;;;;;6.47;2.97;;;;;;;9.53;63.98;100838.95;1728232;80;22024;-72
2022/05/14 02:18:49;;;;;;;6.67;2.73;;;;;;;9.59;63.97;100841.40;1732094;80;21063;-73
2022/05/14 02:21:20;;;;;;;5.60;3.00;;;;;;;9.66;64.07;100830.77;1746365;79;21017;-74
2022/05/14 02:23:47;;;;;;;5.20;3.10;;;;;;;9.78;64.23;100830.42;1743198;80;20989;-72
2022/05/14 02:26:15;;;;;;;4.50;2.67;;;;;;;9.89;64.26;100832.30;1762897;80;21004;-72
2022/05/14 02:28:43;;;;;;;6.30;2.87;;;;;;;9.86;63.83;100836.31;1733896;82;21111;-79
2022/05/14 02:31:10;;;;;;;4.50;2.43;;;;;;;9.77;63.95;100828.72;1809729;77;21153;-74
2022/05/14 02:33:38;;;;;;;4.20;2.50;;;;;;;9.71;63.76;100829.73;1786439;77;20928;-72
2022/05/14 02:36:08;;;;;;;5.53;2.80;;;;;;;9.70;64.06;100829.77;1803610;77;21009;-83
2022/05/14 02:38:36;;;;;;;3.33;2.77;;;;;;;9.70;64.03;100825.84;1807187;77;21041;-75
2022/05/14 02:41:05;;;;;;;5.77;2.97;;;;;;;9.70;64.51;100821.91;1837030;77;20966;-77
2022/05/14 02:43:33;;;;;;;6.93;3.70;;;;;;;9.74;64.51;100819.19;1817836;78;21088;-82
2022/05/14 02:46:02;;;;;;;5.60;3.40;;;;;;;9.82;64.97;100825.53;1800923;79;21502;-73
2022/05/14 02:48:29;;;;;;;6.97;3.30;;;;;;;9.91;65.57;100825.27;1808955;79;20998;-73
2022/05/14 02:50:57;;;;;;;4.77;3.27;;;;;;;10.03;65.99;100817.09;1808765;79;20996;-72
2022/05/14 02:53:25;;;;;;;7.87;2.67;;;;;;;10.16;65.84;100820.20;1808978;79;21016;-83
2022/05/14 02:55:51;;;;;;;11.37;4.07;;;;;;;10.19;65.56;100820.11;1791339;79;21107;-72
2022/05/14 02:59:07;;;;;;;8.27;3.20;;;;;;;10.27;65.76;100816.00;1796028;78;21015;-80
2022/05/14 03:00:47;;;;;;;6.73;3.00;;;;;;;10.30;65.26;100813.74;1798029;79;21453;-81
2022/05/14 03:03:14;;;;;;;5.93;3.23;;;;;;;10.28;64.85;100819.02;1801369;79;21009;-73
2022/05/14 03:05:41;;;;;;;4.40;3.10;;;;;;;10.17;64.53;100812.77;1803218;79;21585;-72
2022/05/14 03:08:09;;;;;;;5.83;3.17;;;;;;;10.03;64.43;100812.28;1803562;79;21317;-72
2022/05/14 03:10:36;;;;;;;8.20;2.97;;;;;;;9.90;64.53;100819.64;1803218;79;21027;-72
2022/05/14 03:13:03;;;;;;;4.60;2.83;;;;;;;9.86;64.89;100821.06;1803632;79;21604;-75
2022/05/14 03:15:31;;;;;;;5.63;2.90;;;;;;;9.81;65.01;100818.13;1803229;79;21017;-75
2022/05/14 03:17:58;;;;;;;4.17;2.80;;;;;;;9.83;65.32;100818.07;1803641;78;20992;-78
2022/05/14 03:20:26;;;;;;;5.57;2.63;;;;;;;9.95;65.61;100814.25;1803406;79;21798;-84
2022/05/14 03:22:53;;;;;;;6.53;2.60;;;;;;;10.08;65.44;100814.31;1803543;79;21004;-78
2022/05/14 03:25:20;;;;;;;4.53;2.43;;;;;;;10.15;65.02;100816.33;1788360;79;20977;-73
2022/05/14 03:27:48;;;;;;;4.63;2.50;;;;;;;10.19;64.89;100812.25;1799633;78;21035;-75
2022/05/14 03:30:15;;;;;;;4.77;2.90;;;;;;;10.16;64.80;100817.58;1796014;78;21043;-73
2022/05/14 03:32:43;;;;;;;4.57;2.50;;;;;;;10.11;64.69;100818.16;1799666;78;21072;-73
2022/05/14 03:35:10;;;;;;;5.53;2.70;;;;;;;9.99;64.48;100819.38;1781201;78;21040;-74
2022/05/14 03:37:37;;;;;;;4.67;2.60;;;;;;;9.87;64.52;100824.95;1775077;80;20999;-74
2022/05/14 03:40:08;;;;;;;6.00;3.27;;;;;;;9.84;65.15;100821.12;1808049;78;20992;-83
2022/05/14 03:42:36;;;;;;;6.23;3.40;;;;;;;9.92;65.52;100817.84;1731863;82;21002;-81
2022/05/14 03:45:05;;;;;;;8.20;2.87;;;;;;;10.03;65.86;100818.40;1807751;78;21266;-81
2022/05/14 03:47:31;;;;;;;4.03;2.80;;;;;;;10.16;65.71;100820.66;1810312;79;20854;-79
2022/05/14 03:49:59;;;;;;;5.00;3.00;;;;;;;10.27;65.82;100821.23;1805405;78;21044;-86
2022/05/14 03:52:26;;;;;;;3.83;2.67;;;;;;;10.37;65.83;100821.39;1739577;82;20973;-73
2022/05/14 03:54:53;;;;;;;4.13;1.90;;;;;;;10.46;65.57;100822.88;1790725;78;21012;-82
2022/05/14 03:57:20;;;;;;;6.10;2.23;;;;;;;10.53;65.23;100819.17;1787225;78;21056;-83
2022/05/14 03:59:47;;;;;;;5.80;2.20;;;;;;;10.55;64.78;100821.73;1750556;79;21515;-84
2022/05/14 04:02:14;;;;;;;7.40;2.50;;;;;;;10.58;64.53;100822.48;1743741;80;21122;-87
2022/05/14 04:04:41;;;;;;;5.40;2.23;;;;;;;10.61;64.46;100818.92;1724889;82;21041;-88
2022/05/14 04:07:10;;;;;;;2.80;2.17;;;;;;;10.63;64.31;100827.14;1711715;83;21022;-83
2022/05/14 04:09:37;;;;;;;5.53;2.10;;;;;;;10.68;64.19;100830.95;1703392;83;21090;-74
2022/05/14 04:12:05;;;;;;;3.67;2.20;;;;;;;10.71;64.12;100830.85;1712503;83;20995;-83
2022/05/14 04:14:33;;;;;;;4.27;2.30;;;;;;;10.76;64.03;100832.03;1715205;82;21124;-74
2022/05/14 04:17:00;;;;;;;5.93;2.20;;;;;;;10.83;64.03;100823.05;1703321;83;20973;-74
2022/05/14 04:19:27;;;;;;;3.97;2.00;;;;;;;10.97;64.01;100821.30;1700910;83;21040;-74
2022/05/14 04:21:55;;;;;;;4.77;2.00;;;;;;;11.15;63.89;100822.89;1782208;79;21117;-73
2022/05/14 04:24:22;;;;;;;5.67;1.60;;;;;;;11.32;63.67;100817.08;1776132;80;21616;-74
2022/05/14 04:26:49;;;;;;;4.03;1.70;;;;;;;11.48;63.43;100820.52;1776327;79;21106;-74
2022/05/14 04:29:17;;;;;;;3.30;1.57;;;;;;;11.64;63.17;100817.77;1777006;79;21021;-75
2022/05/14 04:31:43;;;;;;;4.13;1.73;;;;;;;11.77;62.83;100821.66;1778296;79;21024;-74
2022/05/14 04:34:11;;;;;;;5.73;1.87;;;;;;;11.90;62.56;100819.49;1774978;80;22005;-73
2022/05/14 04:36:39;;;;;;;4.97;2.03;;;;;;;11.99;62.33;100821.78;1776830;79;21004;-73
2022/05/14 04:39:07;;;;;;;2.97;1.50;;;;;;;12.06;62.14;100822.44;1806332;78;21012;-74
2022/05/14 04:41:34;;;;;;;4.40;1.83;;;;;;;12.14;62.13;100824.33;1766825;79;21129;-74
2022/05/14 04:44:02;;;;;;;3.90;1.57;;;;;;;12.22;61.85;100827.95;1784524;79;20973;-77
2022/05/14 04:46:29;;;;;;;6.50;2.17;;;;;;;12.31;61.67;100834.67;1786281;79;21490;-74
2022/05/14 04:48:58;;;;;;;5.87;1.70;;;;;;;12.38;61.49;100834.36;1776846;79;21036;-74
2022/05/14 04:51:25;;;;;;;5.70;2.07;;;;;;;12.47;61.32;100837.09;1778555;79;21434;-73
2022/05/14 04:53:52;;;;;;;6.90;1.80;;;;;;;12.56;61.19;100842.48;1774582;79;21580;-74
2022/05/14 04:56:19;;;;;;;6.67;2.05;;;;;;;12.64;61.23;100837.33;1771240;79;22393;-78
2022/05/14 04:58:46;;;;;;;5.67;2.40;;;;;;;12.73;61.16;100836.97;1774889;79;21131;-75
2022/05/14 05:01:13;;;;;;;7.50;2.27;;;;;;;12.81;60.96;100834.04;1776746;79;21056;-73
2022/05/14 05:03:40;;;;;;;5.45;1.92;;;;;;;12.91;60.83;100835.41;1780050;79;21059;-81
2022/05/14 05:06:09;;;;;;;7.87;2.40;;;;;;;13.02;60.60;100832.78;1798218;79;21513;-76
2022/05/14 05:08:38;;;;;;;6.90;2.33;;;;;;;13.11;60.50;100835.06;1793286;78;21100;-74
2022/05/14 05:11:05;;;;;;;6.08;2.00;;;;;;;13.20;60.31;100836.45;1727038;82;21162;-74
2022/05/14 05:13:35;;;;;;;4.53;2.20;;;;;;;13.28;60.21;100835.72;1792636;78;20999;-74
2022/05/14 05:16:01;;;;;;;5.97;2.90;;;;;;;13.35;60.04;100831.89;1783145;78;21458;-74
2022/05/14 05:18:28;;;;;;;5.08;2.20;;;;;;;13.41;59.83;100828.99;1779319;78;21055;-74
2022/05/14 05:20:56;;;;;;;4.57;2.00;;;;;;;13.42;59.62;100830.73;1771767;81;21123;-79
2022/05/14 05:23:25;;;;;;;4.42;2.40;;;;;;;13.44;59.54;100835.91;1775780;79;21928;-74
2022/05/14 05:25:52;;;;;;;7.00;1.95;;;;;;;13.46;59.47;100836.71;1776952;79;22022;-74
2022/05/14 05:28:20;;;;;;;4.08;1.98;;;;;;;13.49;59.57;100832.63;1779958;79;20988;-77
2022/05/14 05:30:48;;;;;;;6.72;2.20;;;;;;;13.53;59.52;100835.08;1773660;78;21075;-75
2022/05/14 05:33:20;;;;;;;6.47;2.67;;;;;;;13.56;59.55;100837.58;1804189;79;21373;-82
2022/05/14 05:35:48;;;;;;;4.25;2.30;;;;;;;13.61;59.59;100840.03;1784604;79;21107;-83
2022/05/14 05:38:16;;;;;;;5.12;2.17;;;;;;;13.65;59.53;100848.18;1780438;80;20936;-79
2022/05/14 05:40:44;;;;;;;5.08;2.05;;;;;;;13.69;59.51;100837.92;1780211;80;21070;-83
2022/05/14 05:43:12;;;;;;;5.53;2.20;;;;;;;13.74;59.42;100839.02;1780602;80;21019;-78
2022/05/14 05:45:46;;;;;;;6.47;2.02;;;;;;;13.76;59.27;100841.98;1783617;78;21017;-77
2022/05/14 05:48:14;;;;;;;5.15;2.20;;;;;;;13.79;59.33;100840.53;1785963;79;21072;-74
2022/05/14 05:50:43;;;;;;;3.55;2.17;;;;;;;13.84;59.20;100842.52;1771722;81;20996;-73
2022/05/14 05:53:09;;;;;;;6.50;2.17;;;;;;;13.89;59.25;100841.01;1784672;78;20965;-77
2022/05/14 05:58:22;;;;;;;4.20;2.10;;;;;;;13.99;59.04;100842.30;1772680;78;21000;-77
2022/05/14 06:00:49;;;;;;;3.65;2.10;;;;;;;14.06;58.89;100837.63;1775654;78;21912;-75
2022/05/14 06:03:17;;;;;;;4.40;2.00;;;;;;;14.11;58.99;100839.59;1802277;78;21068;-75
2022/05/14 06:05:44;;;;;;;6.67;2.17;;;;;;;14.20;59.00;100838.33;1797101;79;20997;-73
2022/05/14 06:08:15;;;;;;;6.75;2.45;;;;;;;14.30;59.00;100839.63;1729214;80;21078;-74
2022/05/14 06:10:43;;;;;;;5.60;2.20;;;;;;;14.40;58.96;100847.96;1730355;82;21043;-74
2022/05/14 06:13:10;;;;;;;7.30;2.55;;;;;;;14.47;58.78;100849.41;1723125;81;22191;-74
2022/05/14 06:15:39;;;;;;;9.23;2.90;;;;;;;14.55;58.80;100849.06;1729686;83;21486;-73
2022/05/14 06:18:07;;;;;;;6.28;2.72;;;;;;;14.61;58.46;100861.52;1709058;84;21005;-73
2022/05/14 06:20:38;;;;;;;6.85;3.15;;;;;;;14.67;58.06;100859.06;1730237;82;20970;-75
2022/05/14 06:23:05;;;;;;;;;;;;;;;14.68;57.77;100856.33;1732585;81;21063;-80
2022/05/14 06:25:32;;;;;;;6.30;2.50;;;;;;;14.69;57.48;100855.42;1730216;81;21234;-72
2022/05/14 06:27:59;;;;;;;6.67;3.50;;;;;;;14.70;57.50;100854.95;1734723;82;21061;-73
2022/05/14 06:30:26;;;;;;;9.40;3.40;;;;;;;14.75;57.31;100849.47;1734549;82;21018;-74
2022/05/14 06:32:53;;;;;;;5.60;2.77;;;;;;;14.77;57.26;100853.75;1735272;81;21044;-71
2022/05/14 06:35:21;;;;;;;5.65;2.20;;;;;;;14.82;57.08;100857.00;1734034;81;21011;-72
2022/05/14 06:37:47;;;;;;;4.72;2.80;;;;;;;14.84;57.06;100849.88;1740466;82;21141;-72
2022/05/14 06:40:14;;;;;;;5.60;2.67;;;;;;;14.89;57.02;100868.14;1727738;81;21511;-76
2022/05/14 06:42:41;;;;;;;6.20;3.00;;;;;;;14.92;56.84;100851.69;1738176;81;21001;-72
2022/05/14 06:45:10;;;;;;;7.25;2.92;;;;;;;14.98;56.73;100853.17;1727208;82;21039;-79
2022/05/14 06:47:37;;;;;;;5.65;2.95;;;;;;;15.02;56.66;100861.36;1765143;81;21051;-73
2022/05/14 06:50:06;;;;;;;9.63;2.40;;;;;;;15.03;56.49;100858.24;1732114;80;21948;-72
2022/05/14 06:52:34;;;;;;;4.42;2.37;;;;;;;15.07;56.44;100861.11;1722421;80;21040;-73
2022/05/14 06:55:04;;;;;;;7.95;3.10;;;;;;;15.09;56.42;100863.22;1734771;82;21486;-73
2022/05/14 06:57:33;;;;;;;8.85;2.58;;;;;;;15.11;56.38;100867.97;1710743;81;21061;-73
2022/05/14 07:00:01;;;;;;;8.33;3.10;;;;;;;15.13;56.50;100868.29;1724296;81;21033;-73
2022/05/14 07:02:28;;;;;;;7.60;3.42;;;;;;;15.22;56.43;100873.58;1709319;82;21278;-91
2022/05/14 07:07:42;;;;;;;6.67;2.67;;;;;;;15.39;56.31;100870.11;1713906;82;21002;-78
2022/05/14 07:10:09;;;;;;;6.40;2.95;;;;;;;15.50;56.11;100862.50;1742062;80;21048;-81
2022/05/14 07:12:36;;;;;;;6.23;3.00;;;;;;;15.58;55.86;100859.02;1741130;80;21080;-74
2022/05/14 07:15:05;;;;;;;6.75;2.87;;;;;;;15.66;55.79;100859.06;1743427;80;21169;-73
2022/05/14 07:17:32;;;;;;;8.88;3.50;;;;;;;15.77;55.68;100870.01;1743406;82;21041;-72
2022/05/14 07:19:59;;;;;;;11.25;3.60;;;;;;;15.79;55.25;100857.55;1742977;82;21033;-74
2022/05/14 07:22:27;;;;;;;7.87;3.52;;;;;;;15.81;55.10;100868.91;1742791;82;21033;-73
2022/05/14 07:24:54;;;;;;;5.50;3.55;;;;;;;15.78;55.08;100868.59;1740453;82;21457;-73
2022/05/14 07:27:21;;;;;;;7.45;3.25;;;;;;;15.77;54.92;100866.05;1734347;82;21918;-74
2022/05/14 07:29:48;;;;;;;5.92;3.08;;;;;;;15.71;54.80;100864.57;1734277;82;21020;-73
2022/05/14 07:32:18;;;;;;;5.53;2.83;;;;;;;15.73;54.89;100868.44;1734525;82;21518;-74
2022/05/14 07:34:46;;;;;;;10.50;3.80;;;;;;;15.78;54.99;100865.95;1734252;80;21534;-73
2022/05/14 07:37:27;;;;;;;5.78;3.62;;;;;;;15.85;54.81;100869.12;1744442;80;21017;-77
2022/05/14 07:40:10;;;;;;;10.13;4.25;;;;;;;15.92;54.95;100864.39;1751738;80;21135;-73
2022/05/14 07:42:45;;;;;;;6.15;3.77;;;;;;;16.04;54.96;100871.67;1724655;81;21084;-76
2022/05/14 07:45:18;;;;;;;8.45;3.67;;;;;;;16.16;54.88;100863.58;1734738;80;21049;-72
2022/05/14 07:47:46;;;;;;;6.65;3.05;;;;;;;16.26;54.63;100860.34;1734444;82;21552;-72
2022/05/14 07:50:14;;;;;;;8.38;3.40;;;;;;;16.30;54.49;100864.17;1744724;80;21732;-73
2022/05/14 07:52:42;;;;;;;7.67;3.27;;;;;;;16.40;54.69;100864.05;1720224;80;21779;-72
2022/05/14 07:55:10;;;;;;;5.33;2.90;;;;;;;16.50;54.38;100852.88;1728517;80;21026;-73
2022/05/14 07:57:37;;;;;;;8.93;3.58;;;;;;;16.57;54.03;100861.80;1742845;82;21021;-74
2022/05/14 08:00:06;;;;;;;5.92;3.02;;;;;;;16.54;53.60;100866.79;1743105;80;21057;-77
2022/05/14 08:02:35;;;;;;;7.37;3.02;;;;;;;16.50;53.51;100869.23;1731325;80;21013;-75
2022/05/14 08:05:05;;;;;;;7.65;2.60;;;;;;;16.53;53.56;100869.54;1743740;80;21065;-76
2022/05/14 08:07:32;;;;;;;;;;;;;;;16.56;53.31;100871.54;1748761;80;21387;-76
2022/05/14 08:09:59;;;;;;;9.35;2.92;;;;;;;16.54;53.12;100868.59;1745705;82;20187;-75
2022/05/14 08:12:32;;;;;;;10.82;3.12;;;;;;;16.59;53.15;100867.40;1769550;81;21289;-75
2022/05/14 08:14:59;;;;;;;8.20;2.83;;;;;;;16.71;53.18;100868.51;1745730;82;21035;-74
2022/05/14 08:17:27;;;;;;;10.60;3.80;;;;;;;16.82;52.89;100870.16;1739703;82;21262;-89
2022/05/14 08:19:55;;;;;;;7.30;3.12;;;;;;;16.82;52.89;100870.16;1767744;80;20932;-73
2022/05/14 08:25:08;;;;;;;5.80;2.83;;;;;;;16.89;52.61;100854.77;1760122;81;21482;-74
2022/05/14 08:27:44;;;;;;;6.40;2.95;;;;;;;16.98;52.62;100858.22;1738675;82;21016;-74
2022/05/14 08:30:06;;;;;;;8.13;2.77;;;;;;;17.00;52.76;100845.75;1737765;82;21096;-76
2022/05/14 08:32:33;;;;;;;8.38;3.22;;;;;;;17.11;52.81;100856.59;1760464;81;21470;-76
2022/05/14 08:35:00;;;;;;;8.30;3.37;;;;;;;17.19;52.69;100849.53;1738547;82;21051;-76
2022/05/14 08:37:27;;;;;;;11.57;4.10;;;;;;;17.24;52.67;100860.72;1798424;79;20989;-78
2022/05/14 08:39:55;;;;;;;5.55;3.40;;;;;;;17.33;52.74;100858.01;1798192;79;21600;-74
2022/05/14 08:42:22;;;;;;;14.25;4.37;;;;;;;17.45;52.58;100853.78;1798231;79;21941;-79
2022/05/14 08:44:51;;;;;;;7.62;3.90;;;;;;;17.52;52.07;100845.87;1798239;79;21623;-77
2022/05/14 08:47:30;;;;;;;5.92;3.50;;;;;;;17.59;51.94;100846.72;1798232;79;20997;-90
2022/05/14 08:49:57;;;;;;;8.80;3.30;;;;;;;17.64;51.80;100845.12;1794530;79;21005;-74
2022/05/14 08:52:29;;;;;;;6.15;3.17;;;;;;;17.72;51.85;100848.17;1798169;79;21012;-78
2022/05/14 08:55:04;;;;;;;7.72;3.58;;;;;;;17.84;51.60;100848.78;1798525;79;21074;-83
2022/05/14 08:57:51;;;;;;;6.75;3.45;;;;;;;18.01;51.76;100840.28;1797295;79;21063;-75
2022/05/14 09:00:19;;;;;;;7.83;3.55;;;;;;;18.13;51.20;100850.64;1798567;79;20965;-74
2022/05/14 09:02:50;;;;;;;9.85;3.77;;;;;;;18.11;50.74;100853.85;1798203;79;21473;-74
2022/05/14 09:05:26;;;;;;;9.18;3.67;;;;;;;18.02;50.52;100849.97;1800839;79;21120;-84
2022/05/14 09:07:53;;;;;;;9.30;3.72;;;;;;;18.05;50.87;100848.45;1802378;79;21115;-72
2022/05/14 09:10:34;;;;;;;8.80;3.83;;;;;;;18.12;50.55;100846.26;1781422;79;21448;-87
2022/05/14 09:13:15;;;;;;;9.88;4.20;;;;;;;18.16;50.16;100848.64;1803461;79;21000;-77
2022/05/14 09:15:52;;;;;;;8.83;3.47;;;;;;;18.20;49.96;100852.80;1801583;79;21040;-78
2022/05/14 09:18:24;;;;;;;7.87;3.00;;;;;;;18.30;49.51;100842.96;1803617;79;21104;-74
2022/05/14 09:20:59;;;;;;;8.50;2.90;;;;;;;18.41;49.67;100849.77;1803730;78;21096;-74
2022/05/14 09:23:34;;;;;;;10.13;3.40;;;;;;;18.53;49.18;100850.80;1803869;79;21055;-74
2022/05/14 09:26:17;;;;;;;7.78;3.08;;;;;;;18.49;48.66;100855.45;1803223;79;21035;-76
2022/05/14 09:28:52;;;;;;;8.90;3.52;;;;;;;18.40;48.14;100854.23;1803576;79;21020;-90
2022/05/14 09:31:34;;;;;;;5.70;2.85;;;;;;;18.41;47.92;100855.09;1802787;79;20997;-77
2022/05/14 09:34:17;;;;;;;8.10;3.00;;;;;;;18.36;47.54;100855.84;1803448;79;21163;-75
2022/05/14 09:36:48;;;;;;;6.80;3.00;;;;;;;18.33;47.62;100853.38;1803695;79;21004;-78
2022/05/14 09:39:20;;;;;;;10.75;3.25;;;;;;;18.30;47.29;100849.11;1803497;79;21514;-82
2022/05/14 09:41:53;;;;;;;9.73;3.33;;;;;;;18.34;47.21;100859.91;1803791;79;21562;-75
2022/05/14 09:44:48;;;;;;;8.78;2.70;;;;;;;18.42;46.99;100848.81;1803606;79;22386;-76
2022/05/14 09:47:31;;;;;;;8.73;3.08;;;;;;;18.55;46.88;100848.43;1803857;79;21092;-74
2022/05/14 09:50:05;;;;;;;7.10;2.30;;;;;;;18.79;46.90;100845.17;1803366;79;21000;-76
2022/05/14 09:52:37;;;;;;;7.28;2.35;;;;;;;19.04;46.70;100841.78;1803817;78;21075;-91
2022/05/14 09:55:08;;;;;;;5.83;2.65;;;;;;;19.23;46.23;100838.77;1803440;78;21023;-74
2022/05/14 09:57:57;;;;;;;6.00;2.27;;;;;;;19.47;46.22;100837.62;1810002;77;21009;-77
2022/05/14 10:00:45;;;;;;;6.25;2.27;;;;;;;19.60;45.88;100833.18;1748468;79;21968;-73
2022/05/14 10:03:38;;;;;;;9.30;2.40;;;;;;;19.64;45.82;100841.31;1729521;81;21633;-75
2022/05/14 10:06:36;;;;;;;11.12;2.17;;;;;;;19.71;45.48;100837.32;1802179;77;20942;-73
2022/05/14 10:09:41;;;;;;;7.12;2.30;;;;;;;19.78;45.46;100831.94;1795365;77;21001;-74
2022/05/14 10:12:25;;;;;;;6.25;2.12;;;;;;;19.95;45.57;100849.42;1784908;78;20996;-73
2022/05/14 10:15:13;;;;;;;5.57;2.10;;;;;;;20.27;44.94;100836.51;1811626;77;21138;-79
2022/05/14 10:18:00;;;;;;;8.68;2.30;;;;;;;20.62;44.99;100832.34;1801759;77;21112;-82
2022/05/14 10:20:42;;;;;;;4.62;2.00;;;;;;;20.99;44.34;100839.81;1827332;77;20981;-76
2022/05/14 10:26:46;;;;;;;6.37;2.30;;;;;;;21.36;43.20;100835.72;1646179;85;21098;-78
2022/05/14 10:29:33;;;;;;;9.53;2.30;;;;;;;21.24;42.35;100829.99;1658594;85;21155;-76
2022/05/14 10:32:11;;;;;;;5.35;2.42;;;;;;;21.37;42.23;100828.98;1667847;84;21019;-72
2022/05/14 10:35:03;;;;;;;6.37;2.05;;;;;;;21.59;42.16;100824.20;1663346;84;21039;-84
2022/05/14 10:37:50;;;;;;;4.53;2.00;;;;;;;21.56;41.64;100823.11;1653270;84;21016;-75
2022/05/14 10:40:31;;;;;;;9.40;2.15;;;;;;;21.72;41.70;100832.09;1649908;86;21072;-75
2022/05/14 10:43:44;;;;;;;5.78;1.90;;;;;;;21.68;40.43;100821.31;1649332;86;21055;-75
2022/05/14 10:46:19;;;;;;;6.28;2.30;;;;;;;21.51;40.18;100817.27;1647987;86;21032;-74
2022/05/14 10:49:17;;;;;;;6.08;1.98;;;;;;;21.68;40.27;100812.47;1637781;86;21122;-75
2022/05/14 10:51:49;;;;;;;7.17;2.40;;;;;;;22.05;40.23;100814.44;1647753;85;21115;-84
2022/05/14 10:54:21;;;;;;;5.80;1.90;;;;;;;22.32;39.62;100811.44;1651663;86;21207;-76
2022/05/14 10:57:02;;;;;;;6.47;1.98;;;;;;;22.42;39.26;100800.39;1651644;84;21144;-77
2022/05/14 10:59:41;;;;;;;8.28;3.00;;;;;;;22.65;39.24;100797.67;1670858;79;21703;-77
2022/05/14 11:02:17;;;;;;;7.42;2.00;;;;;;;22.79;38.50;100793.37;1806792;77;20981;-73
2022/05/14 11:04:50;;;;;;;5.42;2.10;;;;;;;22.98;38.27;100802.10;1809074;79;21028;-74
2022/05/14 11:07:30;;;;;;;4.58;1.77;;;;;;;23.04;37.50;100792.72;1795088;78;21498;-75
2022/05/14 11:10:31;;;;;;;4.85;1.87;;;;;;;23.32;37.61;100792.59;1794536;79;21767;-79
2022/05/14 11:13:12;;;;;;;5.58;2.10;;;;;;;23.37;37.13;100792.55;1796565;79;22177;-78
2022/05/14 11:15:40;;;;;;;5.67;1.85;;;;;;;23.48;36.87;100798.34;1722647;82;21048;-76
2022/05/14 11:18:11;;;;;;;7.15;2.05;;;;;;;23.31;36.40;100787.73;1732816;80;21004;-77
2022/05/14 11:20:41;;;;;;;4.37;1.70;;;;;;;22.99;36.12;100788.24;1765819;81;21067;-82
2022/05/14 11:23:13;;;;;;;8.10;2.40;;;;;;;22.71;36.07;100788.66;1755612;81;21193;-73
2022/05/14 11:25:40;;;;;;;8.53;1.82;;;;;;;22.47;36.19;100791.98;1739942;81;21467;-74
2022/05/14 11:28:18;;;;;;;4.92;2.15;;;;;;;22.32;36.41;100790.56;1752330;81;21028;-75
2022/05/14 11:31:00;;;;;;;7.28;2.08;;;;;;;22.24;36.62;100791.17;1721782;81;21024;-77
2022/05/14 11:33:33;;;;;;;7.10;1.98;;;;;;;22.54;36.72;100786.52;1732084;82;21495;-74
2022/05/14 11:36:14;;;;;;;6.37;1.95;;;;;;;22.73;36.68;100791.71;1737834;80;21081;-73
2022/05/14 11:38:47;;;;;;;6.75;1.90;;;;;;;23.00;35.97;100787.25;1727318;82;21088;-72
2022/05/14 11:41:35;;;;;;;12.15;2.42;;;;;;;23.33;36.14;100788.92;1740413;81;21037;-74
2022/05/14 11:44:06;;;;;;;6.60;1.95;;;;;;;23.45;35.34;100786.56;1763789;81;21483;-74
2022/05/14 11:46:48;;;;;;;5.25;1.77;;;;;;;23.23;35.15;100780.84;1759975;81;21060;-76
2022/05/14 11:49:29;;;;;;;6.62;2.47;;;;;;;22.85;35.05;100778.66;1714397;82;21119;-73
2022/05/14 11:52:23;;;;;;;4.85;1.75;;;;;;;23.12;35.75;100790.26;1704109;84;21019;-81
2022/05/14 11:55:22;;;;;;;8.45;2.15;;;;;;;23.51;35.61;100779.34;1731754;81;21038;-82
2022/05/14 11:57:52;;;;;;;;;;;;;;;23.86;35.20;100771.95;1765959;81;21038;-72